Time;durP1;ratioP1;P1;durP2;ratioP2;P2;SDS_P1;SDS_P2;PMS_P1;PMS_P2;Temp;Humidity;BMP_temperature;BMP_pressure;BME280_temperature;BME280_humidity;BME280_pressure;Samples;Min_cycle;Max_cycle;Signal;HPM_P1;HPM_P2
2022/09/04 00:00:48;;;;;;;6.97;3.30;;;;;;;;;;5050361;28;20067;-64
2022/09/04 00:03:34;;;;;;;6.05;3.42;;;;;;;;;;5056238;28;20041;-65
2022/09/04 00:06:04;;;;;;;6.03;3.83;;;;;;;;;;5045408;28;20052;-65
2022/09/04 00:08:39;;;;;;;4.95;3.22;;;;;;;;;;5055697;28;20059;-64
2022/09/04 00:11:37;;;;;;;8.63;3.35;;;;;;;;;;5052166;28;20087;-65
2022/09/04 00:14:03;;;;;;;4.97;3.50;;;;;;;;;;5028966;28;20049;-65
2022/09/04 00:16:29;;;;;;;;;;;;;;;;;;5054717;28;20051;-63
2022/09/04 00:19:01;;;;;;;5.30;3.33;;;;;;;;;;5039537;28;19917;-65
2022/09/04 00:22:00;;;;;;;5.78;3.60;;;;;;;;;;5036905;28;20045;-65
2022/09/04 00:24:37;;;;;;;4.95;3.58;;;;;;;;;;5022883;28;20916;-65
2022/09/04 00:27:03;;;;;;;5.05;3.67;;;;;;;;;;5040416;28;20135;-66
2022/09/04 00:29:52;;;;;;;4.93;3.80;;;;;;;;;;5036285;28;20037;-63
2022/09/04 00:32:24;;;;;;;7.88;3.83;;;;;;;;;;5040917;28;20029;-65
2022/09/04 00:34:56;;;;;;;6.47;4.05;;;;;;;;;;5037175;28;20056;-65
2022/09/04 00:37:25;;;;;;;9.43;3.60;;;;;;;;;;5039844;28;20045;-65
2022/09/04 00:39:56;;;;;;;5.18;3.33;;;;;;;;;;5036041;28;20048;-65
2022/09/04 00:42:34;;;;;;;6.55;3.70;;;;;;;;;;5042415;28;20041;-65
2022/09/04 00:45:18;;;;;;;7.88;4.20;;;;;;;;;;5036319;28;20449;-64
2022/09/04 00:48:02;;;;;;;6.00;3.72;;;;;;;;;;5043563;28;20075;-63
2022/09/04 00:50:39;;;;;;;7.65;3.60;;;;;;;;;;5046289;28;20515;-65
2022/09/04 00:53:16;;;;;;;6.55;4.20;;;;;;;;;;5043392;28;20049;-65
2022/09/04 00:55:43;;;;;;;9.00;3.65;;;;;;;;;;5034618;28;20041;-65
2022/09/04 00:58:20;;;;;;;7.03;3.10;;;;;;;;;;5043900;28;20518;-66
2022/09/04 01:00:46;;;;;;;4.30;2.70;;;;;;;;;;5036518;28;20052;-65
2022/09/04 01:03:36;;;;;;;9.05;3.50;;;;;;;;;;5042362;28;20202;-64
2022/09/04 01:06:08;;;;;;;5.05;3.00;;;;;;;;;;5039751;28;20049;-65
2022/09/04 01:08:41;;;;;;;5.43;3.33;;;;;;;;;;5030506;28;20041;-64
2022/09/04 01:11:26;;;;;;;5.90;2.83;;;;;;;;;;5033123;28;20037;-65
2022/09/04 01:13:55;;;;;;;4.18;2.97;;;;;;;;;;5034427;28;20048;-64
2022/09/04 01:16:33;;;;;;;4.72;3.10;;;;;;;;;;5038061;28;20037;-66
2022/09/04 01:19:11;;;;;;;6.53;2.75;;;;;;;;;;5039511;28;20565;-65
2022/09/04 01:21:56;;;;;;;3.65;2.78;;;;;;;;;;5040097;28;20044;-65
2022/09/04 01:24:41;;;;;;;4.60;2.75;;;;;;;;;;5037832;28;20848;-65
2022/09/04 01:27:07;;;;;;;5.60;2.80;;;;;;;;;;5039533;28;20045;-65
2022/09/04 01:29:56;;;;;;;10.88;4.50;;;;;;;;;;5037052;28;20051;-66
2022/09/04 01:32:22;;;;;;;6.80;2.58;;;;;;;;;;5039939;28;20037;-64
2022/09/04 01:34:51;;;;;;;4.80;2.83;;;;;;;;;;5036406;28;20072;-64
2022/09/04 01:37:29;;;;;;;4.80;3.58;;;;;;;;;;5040074;28;20047;-66
2022/09/04 01:40:14;;;;;;;4.60;3.00;;;;;;;;;;5029755;28;20045;-65
2022/09/04 01:42:46;;;;;;;4.63;3.47;;;;;;;;;;5045862;28;20051;-65
2022/09/04 01:45:13;;;;;;;5.15;2.58;;;;;;;;;;5035584;28;20038;-63
2022/09/04 01:47:51;;;;;;;4.40;2.80;;;;;;;;;;5040267;28;20124;-64
2022/09/04 01:50:20;;;;;;;5.05;3.40;;;;;;;;;;5044485;28;20044;-64
2022/09/04 01:53:06;;;;;;;6.85;3.95;;;;;;;;;;5042387;28;20524;-64
2022/09/04 01:55:35;;;;;;;7.40;3.45;;;;;;;;;;5038745;28;20499;-65
2022/09/04 01:58:05;;;;;;;9.88;3.60;;;;;;;;;;5033836;28;20179;-64
2022/09/04 02:01:03;;;;;;;5.03;2.80;;;;;;;;;;5035655;28;20667;-65
2022/09/04 02:03:38;;;;;;;4.40;3.10;;;;;;;;;;5016707;28;20140;-63
2022/09/04 02:06:10;;;;;;;6.85;3.53;;;;;;;;;;5036678;28;20048;-65
2022/09/04 02:08:55;;;;;;;5.50;2.58;;;;;;;;;;5032101;28;20053;-64
2022/09/04 02:11:22;;;;;;;4.50;2.92;;;;;;;;;;5035916;28;20036;-64
2022/09/04 02:14:08;;;;;;;4.72;2.90;;;;;;;;;;5033106;28;20048;-66
2022/09/04 02:16:43;;;;;;;4.43;2.17;;;;;;;;;;5030897;28;20049;-65
2022/09/04 02:19:19;;;;;;;3.42;2.55;;;;;;;;;;5034192;28;20076;-65
2022/09/04 02:22:06;;;;;;;7.30;2.40;;;;;;;;;;5039960;28;20068;-65
2022/09/04 02:24:55;;;;;;;6.22;2.40;;;;;;;;;;5037005;28;20044;-66
2022/09/04 02:27:27;;;;;;;5.05;2.50;;;;;;;;;;5035187;28;20060;-63
2022/09/04 02:29:59;;;;;;;7.63;2.60;;;;;;;;;;5036063;28;20037;-64
2022/09/04 02:32:31;;;;;;;3.95;2.38;;;;;;;;;;5039631;28;20155;-66
2022/09/04 02:34:57;;;;;;;3.67;2.42;;;;;;;;;;5034320;28;20041;-65
2022/09/04 02:37:23;;;;;;;3.78;2.78;;;;;;;;;;5035800;28;20041;-66
2022/09/04 02:39:51;;;;;;;;;;;;;;;;;;5035742;28;20043;-65
2022/09/04 02:42:20;;;;;;;5.05;2.33;;;;;;;;;;5037563;28;19920;-64
2022/09/04 02:44:51;;;;;;;3.13;2.40;;;;;;;;;;5035608;28;20040;-65
2022/09/04 02:47:23;;;;;;;3.55;2.13;;;;;;;;;;5035818;28;20145;-64
2022/09/04 02:49:55;;;;;;;4.57;2.85;;;;;;;;;;5035752;28;20091;-65
2022/09/04 02:52:32;;;;;;;3.05;2.03;;;;;;;;;;5041876;28;20120;-63
2022/09/04 02:54:58;;;;;;;;;;;;;;;;;;5034751;28;20049;-66
2022/09/04 02:57:32;;;;;;;4.68;2.10;;;;;;;;;;5039115;28;19920;-64
2022/09/04 03:00:20;;;;;;;5.05;2.45;;;;;;;;;;5034510;28;20500;-63
2022/09/04 03:02:53;;;;;;;5.65;2.53;;;;;;;;;;5020343;28;20464;-65
2022/09/04 03:05:25;;;;;;;4.95;2.80;;;;;;;;;;5019059;28;20034;-65
2022/09/04 03:07:57;;;;;;;3.85;2.38;;;;;;;;;;5020899;28;20789;-63
2022/09/04 03:10:48;;;;;;;4.78;2.42;;;;;;;;;;5014778;28;20044;-64
2022/09/04 03:13:26;;;;;;;2.85;2.40;;;;;;;;;;5023594;28;20072;-65
2022/09/04 03:15:55;;;;;;;3.38;2.50;;;;;;;;;;5019708;28;20042;-64
2022/09/04 03:18:33;;;;;;;3.03;2.30;;;;;;;;;;5023985;28;20113;-65
2022/09/04 03:21:10;;;;;;;2.53;2.17;;;;;;;;;;5019248;28;20860;-65
2022/09/04 03:23:48;;;;;;;3.38;2.63;;;;;;;;;;5024049;28;20745;-64
2022/09/04 03:26:20;;;;;;;6.20;2.70;;;;;;;;;;5025635;28;20542;-65
2022/09/04 03:29:08;;;;;;;3.28;2.33;;;;;;;;;;5019214;28;20704;-65
2022/09/04 03:31:40;;;;;;;4.45;2.50;;;;;;;;;;5019397;28;20383;-65
2022/09/04 03:34:24;;;;;;;2.90;2.03;;;;;;;;;;5035397;28;20778;-65
2022/09/04 03:37:02;;;;;;;2.80;2.10;;;;;;;;;;5035448;28;20570;-64
2022/09/04 03:39:32;;;;;;;3.60;2.40;;;;;;;;;;5034772;28;20076;-65
2022/09/04 03:42:04;;;;;;;4.50;2.88;;;;;;;;;;5037312;28;20056;-66
2022/09/04 03:44:42;;;;;;;3.58;2.42;;;;;;;;;;5036138;28;20445;-67
2022/09/04 03:47:26;;;;;;;3.88;2.50;;;;;;;;;;5037676;28;20064;-65
2022/09/04 03:49:58;;;;;;;4.38;2.55;;;;;;;;;;5035069;28;20539;-66
2022/09/04 03:52:37;;;;;;;5.60;3.10;;;;;;;;;;5044311;28;20056;-64
2022/09/04 03:55:04;;;;;;;7.20;2.40;;;;;;;;;;5037991;28;20045;-66
2022/09/04 03:57:30;;;;;;;3.95;3.08;;;;;;;;;;5043911;28;20045;-65
2022/09/04 03:59:56;;;;;;;;;;;;;;;;;;5039406;28;20038;-65
2022/09/04 04:02:37;;;;;;;3.95;2.67;;;;;;;;;;5043511;28;19920;-65
2022/09/04 04:05:13;;;;;;;3.95;2.65;;;;;;;;;;5036852;28;20057;-65
2022/09/04 04:07:39;;;;;;;3.58;2.47;;;;;;;;;;5042833;28;20578;-64
2022/09/04 04:10:05;;;;;;;;;;;;;;;;;;5038821;28;20041;-66
2022/09/04 04:12:55;;;;;;;4.10;2.47;;;;;;;;;;5043229;28;19924;-64
2022/09/04 04:15:36;;;;;;;9.20;4.25;;;;;;;;;;5038080;28;20037;-65
2022/09/04 04:18:12;;;;;;;7.05;2.70;;;;;;;;;;5044730;28;20067;-64
2022/09/04 04:21:01;;;;;;;2.97;2.60;;;;;;;;;;5038175;28;20025;-65
2022/09/04 04:23:28;;;;;;;4.22;2.53;;;;;;;;;;5030190;28;20037;-65
2022/09/04 04:26:23;;;;;;;3.75;2.80;;;;;;;;;;5041032;28;20559;-64
2022/09/04 04:28:55;;;;;;;3.17;2.30;;;;;;;;;;5007074;28;20049;-65
2022/09/04 04:31:21;;;;;;;7.20;2.65;;;;;;;;;;5055868;28;20044;-64
2022/09/04 04:33:47;;;;;;;;;;;;;;;;;;5042738;28;20743;-64
2022/09/04 04:36:28;;;;;;;3.45;2.55;;;;;;;;;;5040405;28;19974;-64
2022/09/04 04:39:00;;;;;;;4.22;2.83;;;;;;;;;;5041663;28;20040;-64
2022/09/04 04:41:29;;;;;;;6.07;2.15;;;;;;;;;;5041071;28;20108;-66
2022/09/04 04:44:15;;;;;;;3.50;2.58;;;;;;;;;;5041145;28;20037;-64
2022/09/04 04:46:41;;;;;;;3.55;2.50;;;;;;;;;;5041781;28;20386;-66
2022/09/04 04:49:19;;;;;;;3.42;2.50;;;;;;;;;;5033576;28;20102;-66
2022/09/04 04:52:04;;;;;;;2.70;2.35;;;;;;;;;;5041813;28;20068;-64
2022/09/04 04:54:50;;;;;;;4.70;2.63;;;;;;;;;;5039548;28;20483;-64
2022/09/04 04:57:34;;;;;;;3.85;2.65;;;;;;;;;;5033062;28;20246;-65
2022/09/04 05:00:18;;;;;;;3.35;2.30;;;;;;;;;;5037005;28;20162;-64
2022/09/04 05:02:59;;;;;;;3.10;2.10;;;;;;;;;;5042776;28;20048;-64
2022/09/04 05:05:25;;;;;;;3.95;2.28;;;;;;;;;;5031149;28;20871;-64
2022/09/04 05:07:51;;;;;;;;;;;;;;;;;;5043133;28;20045;-64
2022/09/04 05:10:23;;;;;;;4.25;2.50;;;;;;;;;;5036270;28;19924;-64
2022/09/04 05:12:58;;;;;;;5.47;2.10;;;;;;;;;;5042972;28;20040;-65
2022/09/04 05:15:24;;;;;;;2.25;1.95;;;;;;;;;;5042167;28;20048;-65
2022/09/04 05:17:50;;;;;;;;;;;;;;;;;;5043541;28;20171;-64
2022/09/04 05:20:34;;;;;;;4.50;1.73;;;;;;;;;;5031924;28;20448;-62
2022/09/04 05:23:08;;;;;;;4.70;2.03;;;;;;;;;;5035487;28;20155;-63
2022/09/04 05:25:53;;;;;;;2.95;1.73;;;;;;;;;;5033543;28;20041;-64
2022/09/04 05:28:28;;;;;;;16.35;2.20;;;;;;;;;;5037209;28;20033;-63
2022/09/04 05:30:57;;;;;;;2.38;1.70;;;;;;;;;;5036513;28;20091;-65
2022/09/04 05:33:36;;;;;;;3.55;2.08;;;;;;;;;;5048361;28;20044;-66
2022/09/04 05:36:21;;;;;;;3.17;2.45;;;;;;;;;;5036568;28;20128;-63
2022/09/04 05:38:56;;;;;;;2.58;2.00;;;;;;;;;;5033831;28;20060;-64
2022/09/04 05:41:46;;;;;;;6.35;1.83;;;;;;;;;;5035396;28;20508;-65
2022/09/04 05:44:34;;;;;;;3.55;1.90;;;;;;;;;;5015905;28;20037;-64
2022/09/04 05:47:06;;;;;;;2.90;2.15;;;;;;;;;;5040807;28;20045;-63
2022/09/04 05:49:45;;;;;;;2.67;2.20;;;;;;;;;;5037325;28;20068;-62
2022/09/04 05:52:10;;;;;;;4.28;2.72;;;;;;;;;;5041491;28;20037;-63
2022/09/04 05:54:36;;;;;;;;;;;;;;;;;;5037203;28;20041;-64
2022/09/04 05:57:21;;;;;;;4.55;2.00;;;;;;;;;;5040218;28;19920;-63
2022/09/04 05:59:47;;;;;;;5.60;2.50;;;;;;;;;;5033380;28;20045;-65
2022/09/04 06:02:13;;;;;;;;;;;;;;;;;;5038112;28;20041;-64
2022/09/04 06:04:50;;;;;;;5.07;2.60;;;;;;;;;;5036622;28;20448;-63
2022/09/04 06:07:16;;;;;;;4.03;2.78;;;;;;;;;;5038469;28;20073;-62
2022/09/04 06:09:42;;;;;;;;;;;;;;;;;;5028175;28;20133;-61
2022/09/04 06:12:11;;;;;;;3.20;2.20;;;;;;;;;;5038252;28;19974;-64
2022/09/04 06:14:43;;;;;;;3.92;2.33;;;;;;;;;;5035772;28;20095;-62
2022/09/04 06:17:12;;;;;;;5.00;2.35;;;;;;;;;;5035628;28;20080;-63
2022/09/04 06:19:57;;;;;;;3.50;1.95;;;;;;;;;;5036329;28;20069;-64
2022/09/04 06:22:32;;;;;;;3.22;1.98;;;;;;;;;;5042515;28;20084;-63
2022/09/04 06:25:04;;;;;;;3.33;2.03;;;;;;;;;;5041568;28;20064;-63
2022/09/04 06:27:30;;;;;;;2.45;1.80;;;;;;;;;;5036604;28;20117;-65
2022/09/04 06:30:10;;;;;;;6.30;2.05;;;;;;;;;;5031484;28;20041;-64
2022/09/04 06:33:09;;;;;;;3.20;2.30;;;;;;;;;;5035336;28;20047;-64
2022/09/04 06:35:53;;;;;;;2.97;1.80;;;;;;;;;;5005432;28;20101;-64
2022/09/04 06:38:37;;;;;;;3.92;2.05;;;;;;;;;;5036758;28;20037;-64
2022/09/04 06:41:08;;;;;;;4.05;2.00;;;;;;;;;;5034702;28;20508;-63
2022/09/04 06:43:57;;;;;;;2.50;2.03;;;;;;;;;;5038066;28;20037;-67
2022/09/04 06:46:27;;;;;;;2.85;1.90;;;;;;;;;;5030062;28;20053;-66
2022/09/04 06:49:13;;;;;;;4.50;2.40;;;;;;;;;;5022140;28;20037;-65
2022/09/04 06:51:58;;;;;;;3.78;1.95;;;;;;;;;;5037374;28;20049;-65
2022/09/04 06:54:24;;;;;;;4.85;1.90;;;;;;;;;;5035487;28;20110;-67
2022/09/04 06:56:50;;;;;;;;;;;;;;;;;;5037325;28;20583;-65
2022/09/04 06:59:19;;;;;;;2.33;1.52;;;;;;;;;;5030605;28;19998;-68
2022/09/04 07:01:59;;;;;;;1.98;1.58;;;;;;;;;;5039786;28;20765;-66
2022/09/04 07:04:29;;;;;;;1.75;1.52;;;;;;;;;;5028427;28;20041;-65
2022/09/04 07:06:54;;;;;;;1.60;1.25;;;;;;;;;;5038016;28;20037;-66
2022/09/04 07:09:20;;;;;;;;;;;;;;;;;;5028379;28;20033;-68
2022/09/04 07:12:05;;;;;;;1.33;1.10;;;;;;;;;;5036910;28;19921;-67
2022/09/04 07:14:38;;;;;;;2.22;1.50;;;;;;;;;;5031840;28;20577;-67
2022/09/04 07:17:19;;;;;;;2.20;1.40;;;;;;;;;;5035463;28;20056;-66
2022/09/04 07:19:52;;;;;;;1.73;1.00;;;;;;;;;;5035325;28;20181;-66
2022/09/04 07:22:18;;;;;;;1.95;1.23;;;;;;;;;;5037007;28;20029;-68
2022/09/04 07:24:44;;;;;;;;;;;;;;;;;;5035492;28;20527;-67
2022/09/04 07:27:33;;;;;;;2.17;1.40;;;;;;;;;;5033515;28;19921;-67
2022/09/04 07:30:01;;;;;;;1.52;0.95;;;;;;;;;;5038882;28;20046;-66
2022/09/04 07:32:37;;;;;;;1.48;1.33;;;;;;;;;;5039963;28;20068;-67
2022/09/04 07:35:03;;;;;;;1.27;1.15;;;;;;;;;;5034719;28;20033;-66
2022/09/04 07:37:49;;;;;;;3.38;1.08;;;;;;;;;;5038932;28;20488;-66
2022/09/04 07:40:15;;;;;;;1.83;1.17;;;;;;;;;;5024094;28;20052;-67
2022/09/04 07:42:41;;;;;;;;;;;;;;;;;;5041381;28;20068;-66
2022/09/04 07:45:08;;;;;;;1.10;1.00;;;;;;;;;;5039799;28;19968;-66
2022/09/04 07:47:46;;;;;;;1.45;1.10;;;;;;;;;;5029668;28;20107;-67
2022/09/04 07:50:39;;;;;;;1.90;1.27;;;;;;;;;;5036747;28;20491;-65
2022/09/04 07:53:22;;;;;;;3.95;1.55;;;;;;;;;;5033879;28;20049;-65
2022/09/04 07:55:50;;;;;;;2.85;1.80;;;;;;;;;;5029202;28;20119;-67
2022/09/04 07:58:27;;;;;;;2.00;1.75;;;;;;;;;;5042896;28;20064;-65
2022/09/04 08:00:53;;;;;;;2.50;1.40;;;;;;;;;;5036225;28;20049;-65
2022/09/04 08:03:19;;;;;;;;;;;;;;;;;;5034027;28;20099;-66
2022/09/04 08:06:02;;;;;;;2.33;1.17;;;;;;;;;;5025898;28;20007;-65
2022/09/04 08:08:34;;;;;;;4.80;1.70;;;;;;;;;;5033761;28;20055;-65
2022/09/04 08:11:15;;;;;;;3.05;1.42;;;;;;;;;;5038229;28;20021;-66
2022/09/04 08:13:59;;;;;;;2.08;1.52;;;;;;;;;;5036248;28;20044;-66
2022/09/04 08:16:46;;;;;;;1.80;1.10;;;;;;;;;;5038616;28;20050;-65
2022/09/04 08:19:39;;;;;;;2.03;1.10;;;;;;;;;;5039638;28;20055;-65
2022/09/04 08:22:06;;;;;;;1.25;1.10;;;;;;;;;;5038881;28;20047;-65
2022/09/04 08:24:52;;;;;;;1.73;1.30;;;;;;;;;;5030167;28;20124;-66
2022/09/04 08:27:18;;;;;;;1.70;1.00;;;;;;;;;;5031842;28;20053;-65
2022/09/04 08:29:47;;;;;;;1.10;1.00;;;;;;;;;;5037779;28;20048;-67
2022/09/04 08:32:19;;;;;;;0.95;0.85;;;;;;;;;;5040215;28;20041;-67
2022/09/04 08:34:52;;;;;;;1.23;1.05;;;;;;;;;;5040149;28;20037;-65
2022/09/04 08:37:25;;;;;;;3.97;1.13;;;;;;;;;;5039174;28;20044;-66
2022/09/04 08:40:00;;;;;;;1.77;1.35;;;;;;;;;;5040740;28;20048;-66
2022/09/04 08:42:45;;;;;;;1.43;1.20;;;;;;;;;;5033907;28;20081;-66
2022/09/04 08:45:12;;;;;;;1.92;1.02;;;;;;;;;;5033318;28;20048;-66
2022/09/04 08:47:43;;;;;;;1.80;1.08;;;;;;;;;;5037891;28;20054;-66
2022/09/04 08:50:26;;;;;;;2.67;1.15;;;;;;;;;;5034651;28;20143;-64
2022/09/04 08:53:04;;;;;;;2.40;1.30;;;;;;;;;;5043194;28;20124;-63
2022/09/04 08:55:31;;;;;;;2.55;1.52;;;;;;;;;;5042211;28;20033;-66
2022/09/04 08:58:04;;;;;;;2.78;1.50;;;;;;;;;;5043966;28;20033;-67
2022/09/04 09:00:33;;;;;;;3.85;1.70;;;;;;;;;;5039483;28;20072;-66
2022/09/04 09:03:15;;;;;;;4.18;2.00;;;;;;;;;;5042287;28;20127;-66
2022/09/04 09:05:59;;;;;;;3.10;1.38;;;;;;;;;;5042120;28;20040;-66
2022/09/04 09:08:44;;;;;;;1.90;1.52;;;;;;;;;;5044185;28;20223;-65
2022/09/04 09:11:10;;;;;;;2.15;1.55;;;;;;;;;;5038280;28;20124;-66
2022/09/04 09:13:42;;;;;;;2.15;1.50;;;;;;;;;;5041820;28;20496;-65
2022/09/04 09:16:46;;;;;;;5.15;1.45;;;;;;;;;;5040679;28;20575;-65
2022/09/04 09:19:40;;;;;;;2.70;1.90;;;;;;;;;;5000542;28;20076;-68
2022/09/04 09:22:11;;;;;;;3.10;2.10;;;;;;;;;;4999725;28;20038;-66
2022/09/04 09:24:37;;;;;;;4.70;2.53;;;;;;;;;;5018315;28;20041;-67
2022/09/04 09:27:19;;;;;;;8.88;1.95;;;;;;;;;;5041360;28;20045;-66
2022/09/04 09:29:48;;;;;;;3.80;1.75;;;;;;;;;;5029841;28;20046;-67
2022/09/04 09:32:33;;;;;;;2.67;1.88;;;;;;;;;;5039232;28;20132;-67
2022/09/04 09:34:59;;;;;;;2.85;1.30;;;;;;;;;;5032846;28;20084;-66
2022/09/04 09:37:25;;;;;;;5.50;1.30;;;;;;;;;;5035670;28;20044;-66
2022/09/04 09:40:19;;;;;;;1.38;1.15;;;;;;;;;;5028072;28;20049;-65
2022/09/04 09:42:52;;;;;;;2.83;1.50;;;;;;;;;;5031585;28;20049;-65
2022/09/04 09:45:21;;;;;;;3.72;1.60;;;;;;;;;;5040652;28;20045;-67
2022/09/04 09:47:54;;;;;;;1.55;1.00;;;;;;;;;;5040574;28;20047;-66
2022/09/04 09:50:39;;;;;;;1.65;1.35;;;;;;;;;;5040907;28;20037;-66
2022/09/04 09:53:23;;;;;;;1.73;1.20;;;;;;;;;;5041236;28;20132;-66
2022/09/04 09:56:08;;;;;;;2.33;1.17;;;;;;;;;;5036538;28;20099;-67
2022/09/04 09:58:49;;;;;;;2.40;1.42;;;;;;;;;;5033599;28;20055;-66
2022/09/04 10:01:31;;;;;;;2.55;1.50;;;;;;;;;;5037470;28;20040;-67
2022/09/04 10:04:10;;;;;;;1.20;1.00;;;;;;;;;;5037016;28;20038;-66
2022/09/04 10:06:48;;;;;;;2.78;1.52;;;;;;;;;;5036827;28;20679;-65
2022/09/04 10:09:36;;;;;;;3.53;1.10;;;;;;;;;;5044082;28;20041;-66
2022/09/04 10:12:20;;;;;;;1.30;1.20;;;;;;;;;;5038588;28;20414;-65
2022/09/04 10:15:05;;;;;;;4.30;1.40;;;;;;;;;;5036043;28;20086;-66
2022/09/04 10:17:31;;;;;;;2.25;1.27;;;;;;;;;;5035762;28;20044;-67
2022/09/04 10:20:07;;;;;;;1.95;1.48;;;;;;;;;;5030301;28;20076;-65
2022/09/04 10:22:33;;;;;;;1.85;1.27;;;;;;;;;;5043104;28;20072;-66
2022/09/04 10:25:02;;;;;;;3.53;1.77;;;;;;;;;;5029746;28;20069;-65
2022/09/04 10:28:07;;;;;;;3.05;1.98;;;;;;;;;;5034862;28;20060;-66
2022/09/04 10:30:53;;;;;;;2.08;1.80;;;;;;;;;;4998076;28;20037;-66
2022/09/04 10:33:29;;;;;;;2.88;1.58;;;;;;;;;;4994115;28;20120;-66
2022/09/04 10:36:05;;;;;;;5.22;2.20;;;;;;;;;;5022816;28;20048;-66
2022/09/04 10:42:03;;;;;;;1.85;1.52;;;;;;;;;;5035203;28;20472;-67
2022/09/04 10:44:29;;;;;;;4.97;1.65;;;;;;;;;;5025880;28;20053;-65
2022/09/04 10:46:55;;;;;;;2.28;1.42;;;;;;;;;;5039005;28;20079;-67
2022/09/04 10:49:25;;;;;;;1.65;1.50;;;;;;;;;;5027163;28;20480;-66
2022/09/04 10:51:55;;;;;;;2.17;1.75;;;;;;;;;;5037056;28;20044;-66
2022/09/04 10:54:27;;;;;;;3.22;1.50;;;;;;;;;;5034619;28;20759;-66
2022/09/04 10:57:12;;;;;;;5.25;1.80;;;;;;;;;;5037190;28;20532;-66
2022/09/04 10:59:38;;;;;;;2.30;1.70;;;;;;;;;;5031907;28;20068;-67
2022/09/04 11:02:10;;;;;;;3.50;1.65;;;;;;;;;;5036501;28;20136;-65
2022/09/04 11:04:58;;;;;;;2.72;2.00;;;;;;;;;;5034545;28;20055;-66
2022/09/04 11:07:43;;;;;;;3.83;2.10;;;;;;;;;;5022384;28;20521;-66
2022/09/04 11:10:28;;;;;;;2.97;1.67;;;;;;;;;;5026504;28;20048;-66
2022/09/04 11:12:54;;;;;;;2.80;1.90;;;;;;;;;;5040385;28;20041;-67
2022/09/04 11:15:35;;;;;;;2.83;1.63;;;;;;;;;;5041907;28;20079;-66
2022/09/04 11:18:04;;;;;;;1.83;1.55;;;;;;;;;;5033654;28;20056;-66
2022/09/04 11:20:42;;;;;;;4.50;1.80;;;;;;;;;;5035090;28;20041;-65
2022/09/04 11:23:31;;;;;;;3.75;1.67;;;;;;;;;;5039697;28;20124;-66
2022/09/04 11:26:17;;;;;;;3.53;1.77;;;;;;;;;;5036465;28;20045;-66
2022/09/04 11:28:55;;;;;;;5.60;1.88;;;;;;;;;;5043803;28;20076;-66
2022/09/04 11:31:24;;;;;;;5.00;1.90;;;;;;;;;;5036856;28;20135;-66
2022/09/04 11:34:00;;;;;;;2.30;1.60;;;;;;;;;;5034966;28;20033;-65
2022/09/04 11:36:39;;;;;;;1.98;1.60;;;;;;;;;;5030989;28;20110;-65
2022/09/04 11:39:24;;;;;;;4.95;1.83;;;;;;;;;;5035116;28;20063;-66
2022/09/04 11:42:09;;;;;;;8.65;2.92;;;;;;;;;;5037245;28;20132;-66
2022/09/04 11:44:57;;;;;;;2.72;1.60;;;;;;;;;;5030671;28;20102;-66
2022/09/04 11:47:41;;;;;;;2.90;1.90;;;;;;;;;;5036758;28;20052;-65
2022/09/04 11:50:15;;;;;;;2.80;1.67;;;;;;;;;;5033089;28;20035;-66
2022/09/04 11:52:45;;;;;;;3.67;1.70;;;;;;;;;;5040419;28;20857;-65
2022/09/04 11:55:15;;;;;;;4.18;1.73;;;;;;;;;;5030910;28;20052;-66
2022/09/04 11:58:09;;;;;;;3.03;2.03;;;;;;;;;;5040304;28;20041;-66
2022/09/04 12:00:42;;;;;;;4.47;1.80;;;;;;;;;;5032550;28;20056;-66
2022/09/04 12:03:28;;;;;;;4.85;1.73;;;;;;;;;;5030958;28;20075;-66
2022/09/04 12:06:12;;;;;;;2.42;1.75;;;;;;;;;;5033374;28;20045;-66
2022/09/04 12:08:50;;;;;;;3.53;1.67;;;;;;;;;;5042748;28;20041;-66
2022/09/04 12:11:22;;;;;;;5.20;1.75;;;;;;;;;;5033890;28;20677;-65
2022/09/04 12:14:07;;;;;;;1.75;1.30;;;;;;;;;;5032384;28;20037;-65
2022/09/04 12:16:55;;;;;;;3.15;1.60;;;;;;;;;;5038860;28;20098;-66
2022/09/04 12:19:39;;;;;;;9.13;1.40;;;;;;;;;;5031905;28;20052;-67
2022/09/04 12:22:17;;;;;;;1.40;1.20;;;;;;;;;;5040252;28;20105;-67
2022/09/04 12:24:46;;;;;;;3.50;1.88;;;;;;;;;;5037643;28;20062;-66
2022/09/04 12:27:24;;;;;;;2.50;1.58;;;;;;;;;;5035263;28;20849;-67
2022/09/04 12:29:59;;;;;;;1.90;1.45;;;;;;;;;;5035705;28;20065;-67
2022/09/04 12:32:25;;;;;;;2.83;1.50;;;;;;;;;;5035721;28;20045;-67
2022/09/04 12:35:10;;;;;;;3.28;1.88;;;;;;;;;;5037018;28;20040;-67
2022/09/04 12:37:47;;;;;;;1.85;1.60;;;;;;;;;;5037022;28;20045;-67
2022/09/04 12:40:29;;;;;;;1.65;1.50;;;;;;;;;;5043609;28;20045;-65
2022/09/04 12:43:07;;;;;;;1.92;1.70;;;;;;;;;;5040401;28;20087;-65
2022/09/04 12:45:58;;;;;;;2.47;1.40;;;;;;;;;;5036372;28;20048;-66
2022/09/04 12:48:26;;;;;;;2.30;1.63;;;;;;;;;;5037733;28;20064;-66
2022/09/04 12:50:56;;;;;;;1.70;1.50;;;;;;;;;;5039570;28;20048;-65
2022/09/04 12:53:29;;;;;;;1.80;1.40;;;;;;;;;;5035233;28;20069;-65
2022/09/04 12:56:04;;;;;;;3.10;1.60;;;;;;;;;;5032022;28;20045;-65
2022/09/04 12:58:51;;;;;;;1.35;1.25;;;;;;;;;;5039896;28;20045;-66
2022/09/04 13:01:22;;;;;;;4.57;1.63;;;;;;;;;;5038854;28;20041;-66
2022/09/04 13:03:48;;;;;;;3.38;1.80;;;;;;;;;;5036613;28;20061;-66
2022/09/04 13:06:30;;;;;;;2.72;1.80;;;;;;;;;;5038587;28;20457;-66
2022/09/04 13:09:11;;;;;;;2.92;1.90;;;;;;;;;;5037143;28;20049;-67
2022/09/04 13:11:56;;;;;;;2.47;1.83;;;;;;;;;;5035459;28;20039;-67
2022/09/04 13:14:36;;;;;;;2.40;1.70;;;;;;;;;;5031366;28;20043;-66
2022/09/04 13:17:08;;;;;;;4.88;1.90;;;;;;;;;;5039425;28;20056;-67
2022/09/04 13:19:59;;;;;;;2.13;1.70;;;;;;;;;;5034649;28;20516;-67
2022/09/04 13:22:29;;;;;;;3.55;1.40;;;;;;;;;;5041503;28;20037;-66
2022/09/04 13:25:14;;;;;;;4.30;1.40;;;;;;;;;;5033579;28;20041;-66
2022/09/04 13:27:58;;;;;;;5.45;2.85;;;;;;;;;;5040889;28;20037;-67
2022/09/04 13:30:25;;;;;;;2.88;1.67;;;;;;;;;;5034306;28;20147;-67
2022/09/04 13:33:00;;;;;;;3.65;1.27;;;;;;;;;;5038391;28;20037;-67
2022/09/04 13:35:30;;;;;;;3.08;1.65;;;;;;;;;;5037039;28;20041;-67
2022/09/04 13:38:02;;;;;;;2.95;1.70;;;;;;;;;;5038132;28;20044;-66
2022/09/04 13:40:31;;;;;;;1.98;1.75;;;;;;;;;;5035293;28;20045;-66
2022/09/04 13:43:22;;;;;;;3.35;2.10;;;;;;;;;;5030606;28;20116;-67
2022/09/04 13:45:51;;;;;;;1.95;1.70;;;;;;;;;;5035324;28;20425;-67
2022/09/04 13:48:36;;;;;;;6.07;2.08;;;;;;;;;;5041048;28;20728;-67
2022/09/04 13:51:05;;;;;;;4.63;1.80;;;;;;;;;;5036770;28;20046;-66
2022/09/04 13:53:40;;;;;;;3.10;1.92;;;;;;;;;;5042598;28;20032;-66
2022/09/04 13:56:08;;;;;;;3.67;1.90;;;;;;;;;;5031905;28;20048;-65
2022/09/04 13:58:50;;;;;;;2.60;2.13;;;;;;;;;;5044446;28;20116;-67
2022/09/04 14:01:20;;;;;;;5.00;2.35;;;;;;;;;;5031296;28;20033;-66
2022/09/04 14:03:52;;;;;;;3.30;2.13;;;;;;;;;;5041712;28;20121;-67
2022/09/04 14:06:20;;;;;;;4.03;2.65;;;;;;;;;;5033957;28;20041;-68
2022/09/04 14:08:47;;;;;;;2.63;1.88;;;;;;;;;;5036213;28;20041;-68
2022/09/04 14:11:25;;;;;;;4.13;2.33;;;;;;;;;;5038948;28;20069;-67
2022/09/04 14:14:10;;;;;;;2.10;1.70;;;;;;;;;;5034611;28;20152;-67
2022/09/04 14:16:43;;;;;;;4.95;2.10;;;;;;;;;;5038644;28;20045;-67
2022/09/04 14:19:14;;;;;;;3.45;2.00;;;;;;;;;;5041612;28;20049;-68
2022/09/04 14:22:01;;;;;;;5.43;2.28;;;;;;;;;;5037021;28;20771;-68
2022/09/04 14:24:31;;;;;;;4.72;2.42;;;;;;;;;;5033983;28;20052;-67
2022/09/04 14:27:17;;;;;;;2.78;2.38;;;;;;;;;;5037533;28;20055;-67
2022/09/04 14:29:56;;;;;;;3.13;2.22;;;;;;;;;;5042450;28;20479;-68
2022/09/04 14:32:41;;;;;;;2.90;2.50;;;;;;;;;;5038925;28;20052;-68
2022/09/04 14:35:20;;;;;;;3.55;2.70;;;;;;;;;;5030347;28;20033;-68
2022/09/04 14:38:04;;;;;;;3.10;2.20;;;;;;;;;;5039505;28;20051;-67
2022/09/04 14:40:33;;;;;;;2.60;2.03;;;;;;;;;;5030257;28;20076;-67
2022/09/04 14:43:05;;;;;;;5.57;2.30;;;;;;;;;;5041162;28;20040;-66
2022/09/04 14:45:52;;;;;;;2.63;2.05;;;;;;;;;;5036761;28;20167;-67
2022/09/04 14:48:22;;;;;;;4.63;2.50;;;;;;;;;;5019979;28;20053;-66
2022/09/04 14:50:58;;;;;;;4.40;2.33;;;;;;;;;;5036849;28;20132;-68
2022/09/04 14:53:32;;;;;;;3.33;2.10;;;;;;;;;;5031994;28;20072;-67
2022/09/04 14:56:01;;;;;;;3.53;2.65;;;;;;;;;;5036912;28;20041;-67
2022/09/04 14:58:30;;;;;;;4.40;2.55;;;;;;;;;;5039821;28;20830;-67
2022/09/04 15:01:20;;;;;;;3.50;2.33;;;;;;;;;;5035383;28;20041;-67
2022/09/04 15:04:24;;;;;;;5.50;2.63;;;;;;;;;;5023366;28;20041;-67
2022/09/04 15:06:55;;;;;;;3.45;2.38;;;;;;;;;;4967667;28;20124;-67
2022/09/04 15:09:24;;;;;;;4.65;2.70;;;;;;;;;;4981171;28;20471;-64
2022/09/04 15:11:55;;;;;;;8.20;3.00;;;;;;;;;;5013503;28;20504;-64
2022/09/04 15:14:33;;;;;;;4.95;2.92;;;;;;;;;;5033600;28;20540;-65
2022/09/04 15:17:02;;;;;;;4.45;2.33;;;;;;;;;;5037560;28;20053;-65
2022/09/04 15:19:49;;;;;;;5.15;2.60;;;;;;;;;;5031451;28;20120;-65
2022/09/04 15:22:21;;;;;;;3.83;2.53;;;;;;;;;;5037518;28;20055;-64
2022/09/04 15:24:49;;;;;;;4.30;3.03;;;;;;;;;;5032384;28;20055;-64
2022/09/04 15:27:15;;;;;;;3.95;2.53;;;;;;;;;;5037685;28;20287;-65
2022/09/04 15:30:05;;;;;;;3.55;2.53;;;;;;;;;;5030764;28;20666;-64
2022/09/04 15:32:54;;;;;;;4.07;3.10;;;;;;;;;;5033658;28;20040;-64
2022/09/04 15:35:21;;;;;;;4.07;2.35;;;;;;;;;;5028581;28;20051;-65
2022/09/04 15:37:49;;;;;;;5.20;2.95;;;;;;;;;;5038435;28;20440;-66
2022/09/04 15:40:26;;;;;;;3.28;2.35;;;;;;;;;;5034401;28;20048;-67
2022/09/04 15:43:01;;;;;;;3.80;2.20;;;;;;;;;;5024420;28;20711;-67
2022/09/04 15:45:46;;;;;;;4.90;2.67;;;;;;;;;;5039071;28;20041;-67